This is the latest recevied weather packets stored in our database for station/object F5IOR-13. If no packets are shown the sender has not sent any weather packets the latest 1 day(s).
| Time | Temp. | Humidity | Pressure | Rain* | Wind** | Luminosity | Snow |
|---|---|---|---|---|---|---|---|
| 1778008109 | 13.33° C | 72% | 980.5 hPa | 3.56 mm | 3.13 m/s, 277° | - | - |
| 1778006309 | 14.44° C | 63% | 980.6 hPa | 3.56 mm | 4.92 m/s, 279° | - | - |
| 1778004509 | 15° C | 65% | 980.4 hPa | 3.56 mm | 4.02 m/s, 274° | - | - |
| 1778002709 | 15° C | 75% | 979.9 hPa | 3.56 mm | 0.89 m/s, 215° | - | - |
| 1778000909 | 15° C | 79% | 979.9 hPa | 3.56 mm | 1.79 m/s, 145° | - | - |
| 1777999109 | 14.44° C | 76% | 980 hPa | 7.37 mm | 1.34 m/s, 188° | - | - |
| 1777997309 | 15° C | 72% | 979.9 hPa | 7.37 mm | 1.34 m/s, 215° | - | - |
| 1777995509 | 17.22° C | 66% | 979.9 hPa | 7.37 mm | 1.79 m/s, 233° | - | - |
| 1777993709 | 17.78° C | 67% | 980.1 hPa | 7.37 mm | 2.24 m/s, 240° | - | - |
| 1777991909 | 16.67° C | 71% | 980.1 hPa | 7.37 mm | 2.24 m/s, 252° | - | - |
| 1777990108 | 17.22° C | 68% | 980.3 hPa | 4.06 mm | 3.58 m/s, 222° | - | - |
| 1777988308 | 16.67° C | 69% | 980.8 hPa | 4.06 mm | 4.02 m/s, 220° | - | - |
| 1777986509 | 16.67° C | 71% | 980.9 hPa | 4.06 mm | 4.02 m/s, 221° | - | - |
| 1777984708 | 16.11° C | 73% | 980.9 hPa | 4.06 mm | 4.02 m/s, 225° | - | - |
| 1777982908 | 16.11° C | 75% | 981 hPa | 4.06 mm | 3.58 m/s, 233° | - | - |
| 1777981108 | 15.56° C | 79% | 981.1 hPa | 4.06 mm | 4.02 m/s, 245° | - | - |
| 1777979308 | 15° C | 80% | 981.2 hPa | 4.06 mm | 3.58 m/s, 245° | - | - |
| 1777977510 | 15° C | 80% | 981.2 hPa | 4.06 mm | 3.58 m/s, 238° | - | - |
| 1777977508 | 15° C | 80% | 981.2 hPa | 4.06 mm | 3.58 m/s, 238° | - | - |
| 1777975709 | 14.44° C | 80% | 981.2 hPa | 5.08 mm | 3.58 m/s, 245° | - | - |
| 1777973908 | 14.44° C | 81% | 981.2 hPa | 5.08 mm | 3.58 m/s, 243° | - | - |
| 1777972949 | 13.89° C | 83% | 981.2 hPa | 5.08 mm | 3.13 m/s, 239° | - | - |
| 1777971989 | 13.89° C | 84% | 981.2 hPa | 5.08 mm | 3.13 m/s, 238° | - | - |
| 1777971028 | 13.89° C | 86% | 981 hPa | 5.08 mm | 2.68 m/s, 234° | - | - |
| 1777970068 | 12.78° C | 92% | 980.8 hPa | 3.3 mm | 1.79 m/s, 211° | - | - |
* Rain latest hour (hover to see other rain measurements)
** Current wind speed in m/s (hover to see current wind gust speed)